Time;durP1;ratioP1;P1;durP2;ratioP2;P2;SDS_P1;SDS_P2;PMS_P1;PMS_P2;Temp;Humidity;BMP_temperature;BMP_pressure;BME280_temperature;BME280_humidity;BME280_pressure;Samples;Min_cycle;Max_cycle;Signal;HPM_P1;HPM_P2
2023/06/11 00:00:19;;;;;;;;;;;;;;;21.71;64.82;99965.69;5428329;32;35504;-67
2023/06/11 00:03:23;;;;;;;;;;;;;;;21.92;63.96;99967.34;5423780;32;34837;-66
2023/06/11 00:06:25;;;;;;;;;;;;;;;22.18;62.94;99968.44;5410230;32;34709;-71
2023/06/11 00:09:28;;;;;;;;;;;;;;;21.67;64.68;99969.59;5421658;32;34645;-67
2023/06/11 00:12:32;;;;;;;;;;;;;;;21.51;65.33;99971.97;5411331;32;34856;-71
2023/06/11 00:15:34;;;;;;;;;;;;;;;21.58;65.04;99981.16;5425770;32;35713;-67
2023/06/11 00:18:40;;;;;;;;;;;;;;;21.63;65.05;99981.56;5423366;32;34675;-72
2023/06/11 00:21:43;;;;;;;;;;;;;;;21.69;64.35;99981.00;5414021;32;35974;-70
2023/06/11 00:24:46;;;;;;;;;;;;;;;21.66;64.84;99983.13;5409679;32;35113;-69
2023/06/11 00:27:48;;;;;;;;;;;;;;;21.28;66.81;99985.63;5412469;32;35284;-70
2023/06/11 00:30:50;;;;;;;;;;;;;;;20.69;68.98;99985.56;5413535;32;35344;-67
2023/06/11 00:33:52;;;;;;;;;;;;;;;21.42;65.87;99984.38;5424315;32;35021;-67
2023/06/11 00:36:54;;;;;;;;;;;;;;;21.26;66.46;99986.72;5428485;32;33821;-67
2023/06/11 00:39:56;;;;;;;;;;;;;;;21.56;65.10;99988.44;5424254;32;34886;-70
2023/06/11 00:42:58;;;;;;;;;;;;;;;21.05;67.84;99986.78;5430064;32;34996;-67
2023/06/11 00:46:02;;;;;;;;;;;;;;;21.55;65.62;99984.09;5417284;32;35074;-68
2023/06/11 00:49:04;;;;;;;;;;;;;;;21.50;65.67;99986.34;5429568;32;34910;-67
2023/06/11 00:52:09;;;;;;;;;;;;;;;21.51;65.65;99985.34;5425687;32;35280;-71
2023/06/11 00:55:12;;;;;;;;;;;;;;;20.84;68.12;99984.19;5427218;32;34881;-72
2023/06/11 00:58:17;;;;;;;;;;;;;;;20.97;67.92;99991.97;5426942;32;34352;-70
2023/06/11 01:01:26;;;;;;;;;;;;;;;20.98;67.72;99983.81;5410778;32;34637;-70
2023/06/11 01:04:29;;;;;;;;;;;;;;;21.04;67.18;99993.97;5412403;32;34315;-71
2023/06/11 01:07:34;;;;;;;;;;;;;;;21.28;66.81;99990.09;5422008;32;34840;-72
2023/06/11 01:10:36;;;;;;;;;;;;;;;21.27;66.47;99988.41;5413268;32;34690;-73
2023/06/11 01:13:38;;;;;;;;;;;;;;;20.77;69.13;99988.41;5410241;32;35049;-68
2023/06/11 01:16:47;;;;;;;;;;;;;;;20.53;69.67;99988.69;5412346;32;35011;-67
2023/06/11 01:19:52;;;;;;;;;;;;;;;20.33;70.21;99990.41;5416346;32;36076;-67
2023/06/11 01:23:14;;;;;;;;;;;;;;;20.90;67.87;99990.84;5410764;32;34846;-71
2023/06/11 01:26:16;;;;;;;;;;;;;;;21.01;67.15;99970.19;5432152;32;33376;-67
2023/06/11 01:29:20;;;;;;;;;;;;;;;20.66;67.93;99983.97;5426434;32;35342;-71
2023/06/11 01:32:24;;;;;;;;;;;;;;;20.37;69.26;99983.81;5413166;32;34518;-71
2023/06/11 01:35:27;;;;;;;;;;;;;;;20.92;66.73;99989.69;5399572;32;34859;-70
2023/06/11 01:38:34;;;;;;;;;;;;;;;21.05;66.36;99989.47;5424894;32;35251;-68
2023/06/11 01:41:36;;;;;;;;;;;;;;;21.41;65.14;99990.69;5432935;32;34976;-70
2023/06/11 01:44:38;;;;;;;;;;;;;;;20.94;67.00;99992.25;5426455;32;35271;-74
2023/06/11 01:47:40;;;;;;;;;;;;;;;21.24;65.69;99994.84;5427951;32;34782;-68
2023/06/11 01:50:45;;;;;;;;;;;;;;;20.91;66.15;99995.19;5422469;32;34970;-72
2023/06/11 01:53:47;;;;;;;;;;;;;;;21.07;66.17;99999.03;5426401;32;35523;-67
2023/06/11 01:56:49;;;;;;;;;;;;;;;20.58;68.21;100002.50;5429285;32;35037;-68
2023/06/11 01:59:51;;;;;;;;;;;;;;;20.57;67.76;99991.97;5426738;32;34486;-68
2023/06/11 02:02:53;;;;;;;;;;;;;;;20.97;66.39;100008.00;5427997;32;34661;-67
2023/06/11 02:05:55;;;;;;;;;;;;;;;20.93;65.91;100004.78;5408119;32;35102;-70
2023/06/11 02:08:57;;;;;;;;;;;;;;;21.10;65.36;99995.25;5411935;32;34973;-72
2023/06/11 02:11:59;;;;;;;;;;;;;;;21.02;65.45;99997.75;5426557;32;34843;-68
2023/06/11 02:15:01;;;;;;;;;;;;;;;20.95;65.72;99993.94;5426107;32;34145;-73
2023/06/11 02:18:03;;;;;;;;;;;;;;;20.80;66.37;99996.13;5429357;32;35280;-68
2023/06/11 02:21:05;;;;;;;;;;;;;;;20.34;67.65;100000.09;5425531;32;34419;-72
2023/06/11 02:24:07;;;;;;;;;;;;;;;20.67;66.62;100000.84;5415494;32;34749;-68
2023/06/11 02:27:09;;;;;;;;;;;;;;;20.76;65.89;100000.91;5413693;32;34734;-69
2023/06/11 02:30:11;;;;;;;;;;;;;;;21.06;64.96;100005.38;5430563;32;35208;-68
2023/06/11 02:33:13;;;;;;;;;;;;;;;20.64;66.15;100014.47;5424960;32;35278;-70
2023/06/11 02:36:15;;;;;;;;;;;;;;;20.64;65.98;100009.97;5425152;32;35409;-67
2023/06/11 02:39:17;;;;;;;;;;;;;;;20.62;66.33;100003.94;5429626;32;34059;-70
2023/06/11 02:42:19;;;;;;;;;;;;;;;20.67;66.08;100003.53;5424054;32;34951;-71
2023/06/11 02:45:23;;;;;;;;;;;;;;;21.03;64.71;100008.31;5430054;32;35010;-67
2023/06/11 02:48:25;;;;;;;;;;;;;;;20.63;65.48;99997.62;5425110;32;35189;-66
2023/06/11 02:51:27;;;;;;;;;;;;;;;21.22;63.75;100001.31;5429035;32;34864;-73
2023/06/11 02:54:29;;;;;;;;;;;;;;;20.68;64.83;100002.56;5430596;32;34985;-72
2023/06/11 02:57:33;;;;;;;;;;;;;;;20.94;64.46;100002.94;5421902;32;34953;-67
2023/06/11 03:00:35;;;;;;;;;;;;;;;21.24;63.19;99999.34;5428485;32;35180;-68
2023/06/11 03:03:37;;;;;;;;;;;;;;;21.26;62.63;99998.25;5424040;32;34718;-71
2023/06/11 03:06:39;;;;;;;;;;;;;;;20.71;65.24;100007.63;5412331;32;34943;-67
2023/06/11 03:09:43;;;;;;;;;;;;;;;20.88;64.56;100003.50;5409789;32;34411;-69
2023/06/11 03:12:48;;;;;;;;;;;;;;;20.99;63.57;100006.03;5428301;32;35455;-69
2023/06/11 03:15:49;;;;;;;;;;;;;;;20.86;64.45;100010.78;5427192;32;34789;-67
2023/06/11 03:18:52;;;;;;;;;;;;;;;20.59;65.28;100011.34;5424749;32;34218;-67
2023/06/11 03:21:54;;;;;;;;;;;;;;;20.93;64.40;100012.78;5429140;32;32888;-67
2023/06/11 03:24:56;;;;;;;;;;;;;;;21.09;63.50;100015.78;5410609;32;34338;-74
2023/06/11 03:27:58;;;;;;;;;;;;;;;21.32;62.45;100012.94;5424235;32;34802;-72
2023/06/11 03:31:00;;;;;;;;;;;;;;;20.63;64.30;100021.66;5423787;32;34832;-73
2023/06/11 03:34:03;;;;;;;;;;;;;;;19.95;67.86;100026.50;5406955;32;34444;-67
2023/06/11 03:37:05;;;;;;;;;;;;;;;20.64;65.27;100022.50;5425944;32;35514;-71
2023/06/11 03:40:07;;;;;;;;;;;;;;;20.15;66.58;100019.50;5410115;32;34897;-67
2023/06/11 03:43:09;;;;;;;;;;;;;;;20.31;65.30;100021.72;5428434;32;34354;-71
2023/06/11 03:46:11;;;;;;;;;;;;;;;20.71;64.54;100018.31;5409694;32;34408;-72
2023/06/11 03:49:13;;;;;;;;;;;;;;;20.89;62.89;100023.87;5425387;32;34865;-67
2023/06/11 03:52:16;;;;;;;;;;;;;;;20.96;63.41;100022.34;5424089;32;34003;-71
2023/06/11 03:55:18;;;;;;;;;;;;;;;21.09;62.39;100002.41;5425525;32;34395;-71
2023/06/11 03:58:23;;;;;;;;;;;;;;;20.97;62.94;100026.69;5425170;32;35052;-67
2023/06/11 04:01:27;;;;;;;;;;;;;;;20.54;64.34;100033.97;5423364;32;34738;-67
2023/06/11 04:04:29;;;;;;;;;;;;;;;21.24;61.91;100026.06;5408553;32;34893;-67
2023/06/11 04:07:32;;;;;;;;;;;;;;;21.10;62.42;100028.16;5419489;32;34424;-68
2023/06/11 04:10:34;;;;;;;;;;;;;;;20.95;63.03;100032.19;5426410;32;34917;-68
2023/06/11 04:13:36;;;;;;;;;;;;;;;20.97;62.85;100032.03;5426568;32;35583;-67
2023/06/11 04:16:38;;;;;;;;;;;;;;;20.96;62.56;100025.03;5427537;32;34946;-68
2023/06/11 04:19:42;;;;;;;;;;;;;;;20.03;65.79;100031.22;5428588;32;34979;-73
2023/06/11 04:22:44;;;;;;;;;;;;;;;20.85;63.30;100030.44;5413120;32;36378;-72
2023/06/11 04:25:48;;;;;;;;;;;;;;;20.60;63.48;100021.91;5417771;32;35420;-67
2023/06/11 04:28:52;;;;;;;;;;;;;;;20.59;63.29;100030.87;5425718;32;34696;-68
2023/06/11 04:31:54;;;;;;;;;;;;;;;20.84;62.63;100029.59;5426387;32;35419;-72
2023/06/11 04:34:56;;;;;;;;;;;;;;;20.45;63.36;100017.88;5427804;32;34409;-71
2023/06/11 04:37:59;;;;;;;;;;;;;;;21.09;61.77;100031.81;5426792;32;35124;-71
2023/06/11 04:41:02;;;;;;;;;;;;;;;21.31;60.53;100030.75;5430403;32;34797;-67
2023/06/11 04:44:06;;;;;;;;;;;;;;;21.54;59.73;100036.72;5423967;32;34351;-71
2023/06/11 04:47:08;;;;;;;;;;;;;;;21.71;59.14;100029.03;5429459;32;34641;-71
2023/06/11 04:50:10;;;;;;;;;;;;;;;20.76;62.13;100038.28;5412486;32;34985;-66
2023/06/11 04:53:12;;;;;;;;;;;;;;;21.01;61.52;100037.00;5428978;32;35040;-74
2023/06/11 04:56:15;;;;;;;;;;;;;;;21.94;58.42;100038.44;5427689;32;35677;-74
2023/06/11 04:59:16;;;;;;;;;;;;;;;21.67;58.91;100039.12;5422268;32;34923;-72
2023/06/11 05:02:19;;;;;;;;;;;;;;;21.32;60.19;100037.81;5431246;32;35260;-66
2023/06/11 05:05:21;;;;;;;;;;;;;;;21.61;58.91;100045.03;5423530;32;34857;-68
2023/06/11 05:08:24;;;;;;;;;;;;;;;20.67;61.90;100033.72;5427785;32;35405;-71
2023/06/11 05:11:28;;;;;;;;;;;;;;;21.56;58.93;100034.75;5409207;32;35677;-68
2023/06/11 05:14:30;;;;;;;;;;;;;;;21.05;60.29;100034.88;5429421;32;34950;-66
2023/06/11 05:17:32;;;;;;;;;;;;;;;21.30;59.45;100039.78;5427163;32;34648;-67
2023/06/11 05:20:35;;;;;;;;;;;;;;;20.74;61.04;100042.94;5426106;32;35317;-67
2023/06/11 05:23:39;;;;;;;;;;;;;;;20.82;60.90;100048.44;5417652;32;35171;-67
2023/06/11 05:26:41;;;;;;;;;;;;;;;21.15;59.58;100043.78;5425051;32;34331;-70
2023/06/11 05:29:43;;;;;;;;;;;;;;;21.67;58.74;100040.97;5413202;32;34238;-73
2023/06/11 05:32:47;;;;;;;;;;;;;;;21.43;58.74;100041.34;5426396;32;35427;-68
2023/06/11 05:35:51;;;;;;;;;;;;;;;21.49;58.80;100038.13;5428657;32;34779;-72
2023/06/11 05:38:53;;;;;;;;;;;;;;;22.06;57.58;100039.12;5411326;32;35025;-72
2023/06/11 05:41:55;;;;;;;;;;;;;;;22.35;55.63;100039.16;5424678;32;34740;-72
2023/06/11 05:44:57;;;;;;;;;;;;;;;21.77;57.80;100044.50;5429034;32;35288;-72
2023/06/11 05:47:59;;;;;;;;;;;;;;;22.33;55.80;100051.81;5424496;32;34965;-68
2023/06/11 05:51:01;;;;;;;;;;;;;;;22.42;55.66;100043.78;5413712;32;34849;-74
2023/06/11 05:54:04;;;;;;;;;;;;;;;22.00;57.01;100051.25;5422227;32;35731;-68
2023/06/11 05:57:16;;;;;;;;;;;;;;;22.12;56.77;100054.66;5426657;32;35407;-67
2023/06/11 06:00:18;;;;;;;;;;;;;;;22.38;56.98;100044.22;5427630;32;35065;-72
2023/06/11 06:03:20;;;;;;;;;;;;;;;22.79;54.55;100047.47;5423192;32;35312;-67
2023/06/11 06:06:23;;;;;;;;;;;;;;;23.49;53.06;100054.06;5425799;32;35299;-68
2023/06/11 06:09:24;;;;;;;;;;;;;;;22.68;54.62;100051.19;5405751;32;34275;-71
2023/06/11 06:12:26;;;;;;;;;;;;;;;23.61;51.90;100049.34;5428070;32;35309;-67
2023/06/11 06:15:28;;;;;;;;;;;;;;;23.38;52.53;100052.47;5425677;32;35396;-67
2023/06/11 06:18:32;;;;;;;;;;;;;;;24.25;50.10;100059.84;5412068;32;34804;-71
2023/06/11 06:21:34;;;;;;;;;;;;;;;25.33;47.20;100053.16;5426960;32;35509;-72
2023/06/11 06:24:36;;;;;;;;;;;;;;;24.48;48.72;100054.88;5427097;32;37046;-71
2023/06/11 06:27:38;;;;;;;;;;;;;;;25.18;46.64;100057.44;5425715;32;35407;-72
2023/06/11 06:30:40;;;;;;;;;;;;;;;25.24;46.70;100059.47;5422619;32;34852;-67
2023/06/11 06:33:42;;;;;;;;;;;;;;;25.05;46.59;100060.59;5415295;32;34283;-71
2023/06/11 06:36:45;;;;;;;;;;;;;;;24.16;48.99;100073.38;5425585;32;35225;-68
2023/06/11 06:39:46;;;;;;;;;;;;;;;25.90;45.47;100061.37;5412237;32;35203;-73
2023/06/11 06:42:48;;;;;;;;;;;;;;;25.50;45.84;100062.09;5427171;32;34413;-71
2023/06/11 06:45:50;;;;;;;;;;;;;;;26.10;44.58;100067.28;5424663;32;35314;-67
2023/06/11 06:48:52;;;;;;;;;;;;;;;25.08;47.22;100071.03;5428892;32;34940;-72
2023/06/11 06:51:54;;;;;;;;;;;;;;;25.19;45.91;100069.06;5418538;32;35180;-76
2023/06/11 06:54:59;;;;;;;;;;;;;;;25.34;45.52;100062.88;5409314;32;35101;-73
2023/06/11 06:58:01;;;;;;;;;;;;;;;24.52;48.32;100058.06;5423887;32;34865;-67
2023/06/11 07:01:03;;;;;;;;;;;;;;;24.53;48.30;100074.03;5425567;32;34416;-68
2023/06/11 07:04:07;;;;;;;;;;;;;;;24.40;48.14;100075.44;5407903;32;34520;-72
2023/06/11 07:07:09;;;;;;;;;;;;;;;24.84;47.06;100060.94;5374421;32;874029;-72
2023/06/11 07:10:11;;;;;;;;;;;;;;;23.98;49.72;100084.13;5409023;32;34586;-73
2023/06/11 07:13:15;;;;;;;;;;;;;;;24.18;49.41;100079.44;5409409;32;34608;-68
2023/06/11 07:16:17;;;;;;;;;;;;;;;24.52;49.06;100087.63;5413356;32;34180;-72
2023/06/11 07:19:19;;;;;;;;;;;;;;;25.06;47.10;100080.28;5424234;32;34334;-68
2023/06/11 07:22:21;;;;;;;;;;;;;;;24.83;47.70;100078.09;5394898;32;34946;-68
2023/06/11 07:25:23;;;;;;;;;;;;;;;24.43;49.01;100080.50;5436516;32;34855;-68
2023/06/11 07:28:25;;;;;;;;;;;;;;;25.01;46.83;100069.94;5396502;32;35908;-73
2023/06/11 07:31:27;;;;;;;;;;;;;;;25.71;45.60;100072.41;5427687;32;35433;-68
2023/06/11 07:34:29;;;;;;;;;;;;;;;26.73;42.86;100071.13;5425154;32;34191;-72
2023/06/11 07:37:31;;;;;;;;;;;;;;;27.66;41.91;100065.88;5426223;32;34342;-75
2023/06/11 07:40:33;;;;;;;;;;;;;;;28.14;40.00;100060.31;5426142;32;34821;-73
2023/06/11 07:43:35;;;;;;;;;;;;;;;27.93;41.03;100064.53;5424957;32;34982;-69
2023/06/11 07:46:37;;;;;;;;;;;;;;;29.04;38.46;100058.47;5416872;32;34397;-71
2023/06/11 07:49:39;;;;;;;;;;;;;;;28.99;38.73;100065.47;5424397;32;34321;-68
2023/06/11 07:52:41;;;;;;;;;;;;;;;29.61;36.88;100046.06;5427318;32;34300;-70
2023/06/11 07:55:43;;;;;;;;;;;;;;;29.22;38.19;100062.66;5424279;32;34389;-74
2023/06/11 07:58:45;;;;;;;;;;;;;;;28.21;38.79;100066.69;5425835;32;34910;-67
2023/06/11 08:01:47;;;;;;;;;;;;;;;28.50;37.76;100072.19;5410364;32;35947;-67
2023/06/11 08:04:50;;;;;;;;;;;;;;;28.36;38.09;100075.72;5422741;32;34685;-68
2023/06/11 08:07:52;;;;;;;;;;;;;;;26.87;40.86;100069.59;5422464;32;34523;-73
2023/06/11 08:10:54;;;;;;;;;;;;;;;27.25;40.52;100078.75;5423867;32;35159;-69
2023/06/11 08:13:56;;;;;;;;;;;;;;;27.58;39.71;100070.50;5426260;32;35359;-67
2023/06/11 08:16:58;;;;;;;;;;;;;;;27.29;40.63;100087.31;5422908;32;34495;-72
2023/06/11 08:20:00;;;;;;;;;;;;;;;27.86;40.00;100085.19;5426989;32;34844;-69
2023/06/11 08:23:02;;;;;;;;;;;;;;;28.57;38.11;100083.97;5418603;32;34816;-68
2023/06/11 08:26:04;;;;;;;;;;;;;;;27.73;39.36;100084.94;5428075;32;34616;-70
2023/06/11 08:29:06;;;;;;;;;;;;;;;27.01;41.43;100085.03;5426511;32;34732;-73
2023/06/11 08:32:08;;;;;;;;;;;;;;;26.93;41.51;100088.59;5422263;32;34579;-73
2023/06/11 08:35:11;;;;;;;;;;;;;;;26.95;41.64;100080.34;5420046;32;35152;-67
2023/06/11 08:38:12;;;;;;;;;;;;;;;27.02;41.39;100084.03;5411328;32;34244;-67
2023/06/11 08:41:15;;;;;;;;;;;;;;;26.69;43.36;100085.97;5413264;32;34441;-66
2023/06/11 08:44:17;;;;;;;;;;;;;;;26.38;43.64;100088.47;5425453;32;34852;-72
2023/06/11 08:47:19;;;;;;;;;;;;;;;26.68;42.62;100090.50;5419217;32;34257;-72
2023/06/11 08:50:22;;;;;;;;;;;;;;;26.02;43.90;100093.34;5427468;32;34877;-67
2023/06/11 08:53:25;;;;;;;;;;;;;;;26.31;43.41;100093.72;5399746;32;34384;-73
2023/06/11 08:56:27;;;;;;;;;;;;;;;26.40;43.58;100091.87;5412307;32;34951;-69
2023/06/11 08:59:29;;;;;;;;;;;;;;;26.58;42.82;100091.69;5411359;32;34975;-71
2023/06/11 09:02:31;;;;;;;;;;;;;;;26.38;43.02;100085.78;5427091;32;35133;-68
2023/06/11 09:05:35;;;;;;;;;;;;;;;25.43;45.45;100089.81;5425906;32;35101;-68
2023/06/11 09:08:37;;;;;;;;;;;;;;;25.66;45.91;100094.44;5408258;32;35486;-68
2023/06/11 09:11:39;;;;;;;;;;;;;;;26.30;44.21;100092.03;5415047;32;34753;-67
2023/06/11 09:14:50;;;;;;;;;;;;;;;27.40;41.78;100089.62;5424545;32;34423;-68
2023/06/11 09:17:52;;;;;;;;;;;;;;;26.97;42.04;100089.09;5411108;32;35317;-74
2023/06/11 09:21:00;;;;;;;;;;;;;;;27.05;42.33;100096.31;5426931;32;34542;-72
2023/06/11 09:24:09;;;;;;;;;;;;;;;26.84;43.03;100094.19;5414502;32;35299;-69
2023/06/11 09:27:11;;;;;;;;;;;;;;;26.99;42.28;100090.63;5417348;32;33941;-68
2023/06/11 09:30:17;;;;;;;;;;;;;;;27.47;41.01;100090.63;5425944;32;34222;-72
2023/06/11 09:33:19;;;;;;;;;;;;;;;26.46;43.26;100101.97;5428520;32;36372;-68
2023/06/11 09:36:21;;;;;;;;;;;;;;;26.63;42.62;100095.56;5409457;32;35183;-68
2023/06/11 09:39:23;;;;;;;;;;;;;;;26.57;43.11;100098.09;5413439;32;34354;-67
2023/06/11 09:42:26;;;;;;;;;;;;;;;27.73;40.58;100093.88;5410654;32;34709;-73
2023/06/11 09:45:31;;;;;;;;;;;;;;;26.53;43.00;100096.75;5431767;32;35438;-72
2023/06/11 09:48:33;;;;;;;;;;;;;;;26.62;42.42;100101.13;5426563;32;35224;-74
2023/06/11 09:51:35;;;;;;;;;;;;;;;26.68;42.75;100104.00;5424913;32;35160;-68
2023/06/11 09:54:37;;;;;;;;;;;;;;;27.22;41.21;100098.81;5414321;32;34835;-68
2023/06/11 09:57:40;;;;;;;;;;;;;;;27.65;40.08;100099.28;5409281;32;35071;-71
2023/06/11 10:00:43;;;;;;;;;;;;;;;26.73;42.15;100108.88;5428373;32;34976;-73
2023/06/11 10:03:45;;;;;;;;;;;;;;;27.91;39.54;100100.88;5408085;32;34409;-73
2023/06/11 10:06:48;;;;;;;;;;;;;;;29.65;36.41;100088.84;5405721;32;35904;-70
2023/06/11 10:09:50;;;;;;;;;;;;;;;30.09;35.18;100095.13;5427042;32;35115;-67
2023/06/11 10:12:53;;;;;;;;;;;;;;;31.09;33.04;100089.47;5403234;32;35084;-73
2023/06/11 10:15:57;;;;;;;;;;;;;;;30.54;34.54;100090.34;5414523;32;35166;-69
2023/06/11 10:19:06;;;;;;;;;;;;;;;31.26;33.05;100088.16;5409292;32;34110;-72
2023/06/11 10:22:08;;;;;;;;;;;;;;;29.71;35.55;100095.38;5418608;32;34755;-69
2023/06/11 10:25:10;;;;;;;;;;;;;;;28.20;38.78;100090.16;5432037;32;34694;-74
2023/06/11 10:28:13;;;;;;;;;;;;;;;29.13;37.47;100092.53;5423697;32;33166;-67
2023/06/11 10:31:25;;;;;;;;;;;;;;;29.06;37.44;100091.59;5435405;32;35407;-73
2023/06/11 10:34:27;;;;;;;;;;;;;;;29.61;35.76;100086.69;5425805;32;35403;-68
2023/06/11 10:37:35;;;;;;;;;;;;;;;28.82;37.42;100073.75;5426024;32;35456;-75
2023/06/11 10:40:37;;;;;;;;;;;;;;;29.04;37.33;100082.81;5410705;32;34703;-67
2023/06/11 10:43:40;;;;;;;;;;;;;;;26.76;41.83;100086.97;5425813;32;34371;-74
2023/06/11 10:46:46;;;;;;;;;;;;;;;28.35;38.99;100082.16;5427603;32;35528;-74
2023/06/11 10:49:49;;;;;;;;;;;;;;;27.30;41.54;100087.13;5409520;32;34881;-73
2023/06/11 10:52:51;;;;;;;;;;;;;;;27.99;40.07;100090.00;5411973;32;34684;-69
2023/06/11 10:55:53;;;;;;;;;;;;;;;28.17;40.00;100085.13;5423432;32;35299;-72
2023/06/11 10:58:56;;;;;;;;;;;;;;;27.25;42.37;100081.44;5427151;32;34593;-66
2023/06/11 11:01:57;;;;;;;;;;;;;;;27.38;42.38;100086.28;5425748;32;34649;-74
2023/06/11 11:05:00;;;;;;;;;;;;;;;27.58;41.46;100081.28;5409795;32;34172;-68
2023/06/11 11:08:02;;;;;;;;;;;;;;;27.06;42.40;100080.00;5424430;32;35566;-67
2023/06/11 11:11:06;;;;;;;;;;;;;;;26.59;43.82;100093.38;5425244;32;35005;-68
2023/06/11 11:14:10;;;;;;;;;;;;;;;26.08;44.93;100084.59;5425670;32;34248;-73
2023/06/11 11:17:14;;;;;;;;;;;;;;;26.81;43.09;100089.16;5414589;32;34704;-69
2023/06/11 11:20:17;;;;;;;;;;;;;;;26.94;43.17;100081.34;5427588;32;34951;-67
2023/06/11 11:23:19;;;;;;;;;;;;;;;27.29;43.05;100082.75;5396015;32;35388;-75
2023/06/11 11:26:21;;;;;;;;;;;;;;;27.32;44.29;100078.91;5414180;32;35034;-72
2023/06/11 11:29:23;;;;;;;;;;;;;;;26.71;46.27;100086.62;5411761;32;34902;-68
2023/06/11 11:32:26;;;;;;;;;;;;;;;26.54;44.16;100083.12;5423432;32;34593;-69
2023/06/11 11:35:28;;;;;;;;;;;;;;;26.15;44.69;100080.25;5411699;32;35322;-67
2023/06/11 11:38:35;;;;;;;;;;;;;;;25.48;46.35;100085.63;5408719;32;34770;-74
2023/06/11 11:41:47;;;;;;;;;;;;;;;27.17;42.97;100079.59;5427827;32;34929;-73
2023/06/11 11:44:49;;;;;;;;;;;;;;;26.53;44.13;100075.19;5421163;32;35686;-72
2023/06/11 11:47:51;;;;;;;;;;;;;;;26.26;44.36;100069.12;5422896;32;34230;-72
2023/06/11 11:51:06;;;;;;;;;;;;;;;27.09;42.82;100065.31;5412295;32;35023;-68
2023/06/11 11:54:12;;;;;;;;;;;;;;;26.84;43.58;100068.06;5404312;32;34686;-68
2023/06/11 11:57:18;;;;;;;;;;;;;;;26.87;43.37;100064.19;5429589;32;36415;-74
2023/06/11 12:00:26;;;;;;;;;;;;;;;26.67;44.43;100066.44;5425991;32;34901;-69
2023/06/11 12:03:28;;;;;;;;;;;;;;;27.14;46.86;100054.84;5423641;32;35392;-68
2023/06/11 12:06:30;;;;;;;;;;;;;;;27.37;44.53;100057.59;5424709;32;34771;-67
2023/06/11 12:09:37;;;;;;;;;;;;;;;27.34;43.63;100052.56;5421821;32;35183;-67
2023/06/11 12:12:39;;;;;;;;;;;;;;;26.41;45.49;100072.03;5425640;32;34257;-67
2023/06/11 12:15:40;;;;;;;;;;;;;;;27.28;43.47;100059.50;5424049;32;34858;-67
2023/06/11 12:18:43;;;;;;;;;;;;;;;26.97;44.33;100060.25;5421512;32;34022;-72
2023/06/11 12:21:45;;;;;;;;;;;;;;;27.26;43.77;100051.59;5425315;32;34911;-68
2023/06/11 12:24:50;;;;;;;;;;;;;;;26.52;46.02;100066.25;5427748;32;34658;-69
2023/06/11 12:27:54;;;;;;;;;;;;;;;26.90;45.05;100051.19;5424868;32;34020;-72
2023/06/11 12:30:56;;;;;;;;;;;;;;;27.00;44.54;100045.59;5423234;32;34999;-72
2023/06/11 12:33:58;;;;;;;;;;;;;;;27.11;44.49;100045.22;5428655;32;34626;-68
2023/06/11 12:37:01;;;;;;;;;;;;;;;27.34;43.77;100036.38;5426028;32;35983;-73
2023/06/11 12:40:04;;;;;;;;;;;;;;;27.49;43.80;100050.78;5428324;32;34523;-74
2023/06/11 12:43:06;;;;;;;;;;;;;;;27.14;43.73;100055.69;5430098;32;35387;-67
2023/06/11 12:46:08;;;;;;;;;;;;;;;27.11;42.85;100055.19;5429478;32;34255;-71
2023/06/11 12:49:13;;;;;;;;;;;;;;;26.99;42.62;100050.16;5429046;32;35718;-67
2023/06/11 12:52:15;;;;;;;;;;;;;;;27.44;42.05;100048.66;5425258;32;35089;-68
2023/06/11 12:55:20;;;;;;;;;;;;;;;26.58;44.43;100045.88;5429518;32;34463;-69
2023/06/11 12:58:22;;;;;;;;;;;;;;;26.00;45.44;100042.34;5409950;32;36497;-72
2023/06/11 13:01:24;;;;;;;;;;;;;;;26.81;44.06;100046.84;5428485;32;35686;-73
2023/06/11 13:04:26;;;;;;;;;;;;;;;26.38;44.95;100046.22;5428544;32;35320;-67
2023/06/11 13:07:28;;;;;;;;;;;;;;;26.41;44.37;100054.00;5425001;32;35140;-72
2023/06/11 13:10:30;;;;;;;;;;;;;;;26.17;45.23;100048.59;5429338;32;34939;-67
2023/06/11 13:13:32;;;;;;;;;;;;;;;26.23;44.65;100052.47;5410044;32;34565;-73
2023/06/11 13:16:34;;;;;;;;;;;;;;;27.20;41.84;100038.81;5412939;32;34878;-67
2023/06/11 13:19:36;;;;;;;;;;;;;;;26.93;42.43;100045.47;5426935;32;34168;-67
2023/06/11 13:22:38;;;;;;;;;;;;;;;26.25;43.02;100045.88;5423900;32;34960;-71
2023/06/11 13:25:40;;;;;;;;;;;;;;;26.80;41.46;100038.94;5418508;32;34637;-74
2023/06/11 13:28:43;;;;;;;;;;;;;;;26.33;43.00;100051.25;5426127;32;35331;-67
2023/06/11 13:31:45;;;;;;;;;;;;;;;26.11;43.14;100042.03;5429123;32;35521;-74
2023/06/11 13:34:48;;;;;;;;;;;;;;;26.25;42.72;100040.50;5425786;32;34536;-67
2023/06/11 13:37:50;;;;;;;;;;;;;;;26.97;41.13;100041.38;5427387;32;34737;-69
2023/06/11 13:40:52;;;;;;;;;;;;;;;27.52;40.49;100035.09;5426356;32;34820;-70
2023/06/11 13:43:54;;;;;;;;;;;;;;;26.58;42.19;100037.78;5424995;32;34383;-68
2023/06/11 13:46:56;;;;;;;;;;;;;;;26.44;41.47;100033.94;5425561;32;34985;-68
2023/06/11 13:49:58;;;;;;;;;;;;;;;25.96;41.37;100030.25;5426485;32;34786;-73
2023/06/11 13:53:00;;;;;;;;;;;;;;;26.43;40.82;100030.41;5429185;32;34323;-68
2023/06/11 13:56:06;;;;;;;;;;;;;;;26.90;40.55;100036.87;5426164;32;35221;-68
2023/06/11 13:59:08;;;;;;;;;;;;;;;26.90;40.48;100034.16;5415447;32;35245;-68
2023/06/11 14:02:10;;;;;;;;;;;;;;;25.90;42.89;100036.31;5425230;32;35053;-71
2023/06/11 14:05:12;;;;;;;;;;;;;;;25.97;42.78;100034.63;5424097;32;35439;-73
2023/06/11 14:08:17;;;;;;;;;;;;;;;25.18;44.55;100040.47;5424847;32;35166;-68
2023/06/11 14:11:19;;;;;;;;;;;;;;;26.26;42.15;100042.19;5422282;32;34801;-68
2023/06/11 14:14:22;;;;;;;;;;;;;;;25.72;43.18;100027.50;5429302;32;34794;-75
2023/06/11 14:17:25;;;;;;;;;;;;;;;26.15;42.88;100042.53;5410595;32;35517;-73
2023/06/11 14:20:27;;;;;;;;;;;;;;;25.74;44.03;100044.34;5414292;32;35066;-67
2023/06/11 14:23:29;;;;;;;;;;;;;;;26.12;43.67;100042.88;5425433;32;34581;-69
2023/06/11 14:26:34;;;;;;;;;;;;;;;26.37;42.38;100043.69;5426398;32;34832;-71
2023/06/11 14:29:36;;;;;;;;;;;;;;;26.35;42.57;100048.44;5429111;32;35298;-73
2023/06/11 14:32:38;;;;;;;;;;;;;;;26.09;42.85;100045.91;5425269;32;34749;-71
2023/06/11 14:35:41;;;;;;;;;;;;;;;26.12;42.74;100051.78;5430738;32;35081;-72
2023/06/11 14:38:43;;;;;;;;;;;;;;;25.98;43.46;100048.94;5424808;32;33490;-72
2023/06/11 14:41:45;;;;;;;;;;;;;;;25.78;43.44;100048.41;5428208;32;35945;-72
2023/06/11 14:44:47;;;;;;;;;;;;;;;25.62;43.65;100051.88;5427774;32;35328;-67
2023/06/11 14:47:52;;;;;;;;;;;;;;;25.41;44.16;100046.09;5410090;32;35483;-69
2023/06/11 14:50:54;;;;;;;;;;;;;;;25.75;43.78;100056.78;5428549;32;34396;-67
2023/06/11 14:53:57;;;;;;;;;;;;;;;25.36;43.42;100041.19;5410961;32;35057;-72
2023/06/11 14:56:59;;;;;;;;;;;;;;;26.27;41.68;100048.41;5426437;32;37007;-67
2023/06/11 15:00:03;;;;;;;;;;;;;;;25.48;43.03;100064.09;5411609;32;34951;-72
2023/06/11 15:03:07;;;;;;;;;;;;;;;25.36;43.46;100068.09;5412249;32;35921;-68
2023/06/11 15:06:13;;;;;;;;;;;;;;;25.74;42.16;100063.19;5424789;32;35215;-67
2023/06/11 15:09:15;;;;;;;;;;;;;;;25.07;42.97;100044.31;5419792;32;34704;-69
2023/06/11 15:12:17;;;;;;;;;;;;;;;25.04;43.70;100060.72;5427307;32;35373;-73
2023/06/11 15:15:19;;;;;;;;;;;;;;;25.65;42.58;100060.47;5426153;32;33562;-72
2023/06/11 15:18:21;;;;;;;;;;;;;;;25.97;41.55;100063.41;5425431;32;34670;-72
2023/06/11 15:21:23;;;;;;;;;;;;;;;25.66;42.75;100062.12;5418832;32;35177;-73
2023/06/11 15:24:25;;;;;;;;;;;;;;;25.56;42.76;100076.72;5426769;32;34926;-73
2023/06/11 15:27:27;;;;;;;;;;;;;;;25.30;43.07;100074.97;5426083;32;34436;-73
2023/06/11 15:30:29;;;;;;;;;;;;;;;25.45;41.92;100079.75;5430576;32;35372;-73
2023/06/11 15:33:31;;;;;;;;;;;;;;;25.61;41.70;100086.00;5411897;32;34779;-74
2023/06/11 15:36:33;;;;;;;;;;;;;;;25.30;42.31;100096.50;5424924;32;35079;-73
2023/06/11 15:39:35;;;;;;;;;;;;;;;24.73;43.75;100106.06;5428554;32;34437;-68